createdAt,value
2023-01-19T00:00:45.611Z,97610.38
2023-01-19T00:03:12.109Z,97613.81
2023-01-19T00:05:38.588Z,97620.88
2023-01-19T00:08:05.020Z,97622.75
2023-01-19T00:10:31.660Z,97631.34
2023-01-19T00:12:58.568Z,97633.53
2023-01-19T00:15:25.976Z,97630.34
2023-01-19T00:17:52.442Z,97634.78
2023-01-19T00:20:19.142Z,97655.34
2023-01-19T00:22:45.510Z,97646.44
2023-01-19T00:25:12.051Z,97642.69
2023-01-19T00:27:38.650Z,97640.66
2023-01-19T00:30:05.140Z,97638.44
2023-01-19T00:32:31.617Z,97643.53
2023-01-19T00:34:58.048Z,97637.47
2023-01-19T00:37:24.521Z,97632.03
2023-01-19T00:39:50.946Z,97621.59
2023-01-19T00:42:17.357Z,97619.22
2023-01-19T00:44:43.811Z,97617.44
2023-01-19T00:47:11.274Z,97630.72
2023-01-19T00:49:37.697Z,97621.63
2023-01-19T00:52:04.165Z,97626.03
2023-01-19T00:54:30.585Z,97621.25
2023-01-19T00:56:59.260Z,97617.09
2023-01-19T00:59:26.086Z,97612.75
2023-01-19T01:01:52.882Z,97628.09
2023-01-19T01:04:19.479Z,97632.56
2023-01-19T01:06:46.038Z,97647.03
2023-01-19T01:09:12.496Z,97650.94
2023-01-19T01:11:39.007Z,97654.97
2023-01-19T01:14:05.490Z,97643.41
2023-01-19T01:16:32.690Z,97646.13
2023-01-19T01:18:59.197Z,97653.78
2023-01-19T01:21:25.780Z,97672.41
2023-01-19T01:23:52.320Z,97672.22
2023-01-19T01:26:18.850Z,97665.88
2023-01-19T01:28:45.355Z,97664.50
2023-01-19T01:31:11.781Z,97669.56
2023-01-19T01:33:40.865Z,97671.84
2023-01-19T01:36:08.177Z,97671.09
2023-01-19T01:38:34.751Z,97665.50
2023-01-19T01:41:01.205Z,97660.81
2023-01-19T01:43:27.894Z,97656.16
2023-01-19T01:45:54.648Z,97675.00
2023-01-19T01:48:21.156Z,97676.59
2023-01-19T01:50:47.543Z,97687.50
2023-01-19T01:53:14.349Z,97689.66
2023-01-19T01:55:40.725Z,97696.06
2023-01-19T01:58:07.897Z,97687.09
2023-01-19T02:00:34.359Z,97682.59
2023-01-19T02:03:01.567Z,97679.91
2023-01-19T02:05:28.551Z,97689.00
2023-01-19T02:07:55.569Z,97684.81
2023-01-19T02:10:22.083Z,97684.78
2023-01-19T02:12:48.623Z,97684.78
2023-01-19T02:15:15.152Z,97680.94
2023-01-19T02:17:41.780Z,97674.31
2023-01-19T02:20:08.513Z,97684.28
2023-01-19T02:22:35.212Z,97674.41
2023-01-19T02:25:01.699Z,97674.03
2023-01-19T02:27:28.247Z,97676.75
2023-01-19T02:29:54.723Z,97679.97
2023-01-19T02:32:21.171Z,97674.97
2023-01-19T02:34:47.809Z,97674.50
2023-01-19T02:37:14.797Z,97677.03
2023-01-19T02:39:42.265Z,97685.97
2023-01-19T02:42:08.790Z,97698.53
2023-01-19T02:44:35.696Z,97696.13
2023-01-19T02:47:02.123Z,97699.63
2023-01-19T02:49:28.498Z,97701.06
2023-01-19T02:51:55.065Z,97705.56
2023-01-19T02:54:21.498Z,97697.34
2023-01-19T02:56:47.945Z,97714.84
2023-01-19T02:59:14.526Z,97693.25
2023-01-19T03:01:41.148Z,97696.81
2023-01-19T03:04:08.059Z,97688.78
2023-01-19T03:06:34.611Z,97688.84
2023-01-19T03:09:01.079Z,97693.56
2023-01-19T03:11:27.991Z,97691.03
2023-01-19T03:13:54.463Z,97695.72
2023-01-19T03:16:21.828Z,97694.00
2023-01-19T03:18:50.272Z,97691.59
2023-01-19T03:21:16.648Z,97693.06
2023-01-19T03:23:43.328Z,97699.84
2023-01-19T03:26:09.788Z,97704.06
2023-01-19T03:28:36.515Z,97711.59
2023-01-19T03:31:03.220Z,97727.78
2023-01-19T03:33:29.707Z,97733.28
2023-01-19T03:35:56.122Z,97734.44
2023-01-19T03:38:22.479Z,97720.34
2023-01-19T03:40:49.317Z,97732.50
2023-01-19T03:43:15.707Z,97736.06
2023-01-19T03:45:42.373Z,97747.28
2023-01-19T03:48:08.948Z,97750.38
2023-01-19T03:50:35.361Z,97756.28
2023-01-19T03:53:02.755Z,97768.66
2023-01-19T03:55:29.390Z,97778.78
2023-01-19T03:57:55.886Z,97774.75
2023-01-19T04:00:22.384Z,97781.72
2023-01-19T04:02:48.989Z,97778.91
2023-01-19T04:05:15.574Z,97766.00
2023-01-19T04:07:41.969Z,97766.84
2023-01-19T04:10:08.547Z,97768.38
2023-01-19T04:12:35.584Z,97777.88
2023-01-19T04:15:02.048Z,97771.84
2023-01-19T04:17:28.528Z,97767.22
2023-01-19T04:19:55.020Z,97755.25
2023-01-19T04:22:21.462Z,97751.16
2023-01-19T04:24:48.047Z,97751.63
2023-01-19T04:27:14.410Z,97752.19
2023-01-19T04:29:40.857Z,97752.19
2023-01-19T04:32:07.308Z,97759.63
2023-01-19T04:34:33.759Z,97768.72
2023-01-19T04:37:00.188Z,97764.03
2023-01-19T04:39:26.800Z,97764.38
2023-01-19T04:41:53.226Z,97764.34
2023-01-19T04:44:19.722Z,97760.91
2023-01-19T04:46:46.155Z,97765.97
2023-01-19T04:49:12.993Z,97764.34
2023-01-19T04:51:39.350Z,97776.31
2023-01-19T04:54:05.831Z,97780.59
2023-01-19T04:56:32.254Z,97777.66
2023-01-19T04:58:58.766Z,97776.31
2023-01-19T05:01:25.202Z,97784.91
2023-01-19T05:03:51.683Z,97782.88
2023-01-19T05:06:18.129Z,97798.28
2023-01-19T05:08:45.474Z,97796.50
2023-01-19T05:11:12.266Z,97793.47
2023-01-19T05:13:38.732Z,97800.69
2023-01-19T05:16:05.145Z,97797.09
2023-01-19T05:18:31.619Z,97805.72
2023-01-19T05:20:58.051Z,97819.44
2023-01-19T05:23:24.739Z,97817.97
2023-01-19T05:25:51.171Z,97819.09
2023-01-19T05:28:17.631Z,97818.19
2023-01-19T05:30:44.187Z,97821.44
2023-01-19T05:33:10.724Z,97824.41
2023-01-19T05:35:37.136Z,97820.78
2023-01-19T05:38:03.616Z,97819.69
2023-01-19T05:40:30.110Z,97820.59
2023-01-19T05:42:56.580Z,97813.63
2023-01-19T05:45:23.028Z,97802.91
2023-01-19T05:47:49.446Z,97805.75
2023-01-19T05:50:16.230Z,97805.78
2023-01-19T05:52:42.660Z,97799.34
2023-01-19T05:55:09.154Z,97807.91
2023-01-19T05:57:35.569Z,97806.97
2023-01-19T06:00:01.971Z,97810.72
2023-01-19T06:02:28.636Z,97806.59
2023-01-19T06:04:55.739Z,97805.22
2023-01-19T06:07:24.260Z,97803.66
2023-01-19T06:09:50.886Z,97806.78
2023-01-19T06:12:17.307Z,97801.63
2023-01-19T06:14:43.722Z,97815.34
2023-01-19T06:17:10.173Z,97819.28
2023-01-19T06:19:36.579Z,97830.06
2023-01-19T06:22:03.149Z,97828.59
2023-01-19T06:24:29.900Z,97831.34
2023-01-19T06:26:56.429Z,97847.22
2023-01-19T06:29:22.984Z,97844.16
2023-01-19T06:31:49.560Z,97842.47
2023-01-19T06:34:16.129Z,97839.19
2023-01-19T06:36:43.639Z,97836.19
2023-01-19T06:39:10.037Z,97833.75
2023-01-19T06:41:36.679Z,97829.47
2023-01-19T06:44:03.137Z,97826.53
2023-01-19T06:46:29.527Z,97833.50
2023-01-19T06:48:55.978Z,97820.00
2023-01-19T06:51:22.408Z,97799.19
2023-01-19T06:53:49.033Z,97805.19
2023-01-19T06:56:15.481Z,97793.44
2023-01-19T06:58:42.226Z,97786.31
2023-01-19T07:01:09.003Z,97787.75
2023-01-19T07:03:35.529Z,97816.22
2023-01-19T07:06:02.315Z,97825.66
2023-01-19T07:08:28.745Z,97833.75
2023-01-19T07:11:26.013Z,97849.16
2023-01-19T07:13:41.823Z,97856.53
2023-01-19T07:16:08.371Z,97853.41
2023-01-19T07:18:34.922Z,97865.47
2023-01-19T07:21:01.469Z,97891.63
2023-01-19T07:23:27.887Z,97893.47
2023-01-19T07:25:54.310Z,97896.25
2023-01-19T07:28:20.760Z,97903.00
2023-01-19T07:30:47.758Z,97915.53
2023-01-19T07:33:14.680Z,97909.66
2023-01-19T07:35:41.303Z,97900.34
2023-01-19T07:38:07.734Z,97903.75
2023-01-19T07:40:34.175Z,97902.25
2023-01-19T07:43:01.064Z,97890.47
2023-01-19T07:45:28.011Z,97886.88
2023-01-19T07:47:54.647Z,97866.50
2023-01-19T07:50:21.090Z,97863.84
2023-01-19T07:52:47.518Z,97854.53
2023-01-19T07:55:13.916Z,97837.03
2023-01-19T07:57:40.416Z,97853.09
2023-01-19T08:00:06.925Z,97843.59
2023-01-19T08:02:33.555Z,97846.44
2023-01-19T08:04:59.961Z,97849.47
2023-01-19T08:07:27.467Z,97862.44
2023-01-19T08:09:53.903Z,97867.84
2023-01-19T08:12:20.350Z,97865.03
2023-01-19T08:14:46.849Z,97870.78
2023-01-19T08:17:13.305Z,97865.03
2023-01-19T08:19:41.535Z,97874.94
2023-01-19T08:22:08.159Z,97897.31
2023-01-19T08:24:34.613Z,97901.03
2023-01-19T08:27:01.049Z,97889.53
2023-01-19T08:29:27.443Z,97905.88
2023-01-19T08:31:53.927Z,97904.44
2023-01-19T08:34:20.379Z,97911.81
2023-01-19T08:36:46.898Z,97903.19
2023-01-19T08:39:13.476Z,97901.00
2023-01-19T08:41:39.931Z,97901.91
2023-01-19T08:44:06.524Z,97912.97
2023-01-19T08:46:33.024Z,97910.84
2023-01-19T08:48:59.608Z,97901.22
2023-01-19T08:51:26.099Z,97896.97
2023-01-19T08:53:53.194Z,97909.31
2023-01-19T08:56:20.750Z,97902.03
2023-01-19T08:58:53.646Z,97913.28
2023-01-19T09:01:30.033Z,97926.09
2023-01-19T09:03:56.563Z,97918.50
2023-01-19T09:06:23.176Z,97924.59
2023-01-19T09:08:49.815Z,97935.59
2023-01-19T09:11:16.265Z,97926.66
2023-01-19T09:13:42.732Z,97932.53
2023-01-19T09:16:09.200Z,97938.78
2023-01-19T09:18:35.632Z,97925.22
2023-01-19T09:21:02.077Z,97937.78
2023-01-19T09:23:28.538Z,97935.28
2023-01-19T09:25:58.285Z,97932.47
2023-01-19T09:28:24.678Z,97942.19
2023-01-19T09:30:51.355Z,97940.41
2023-01-19T09:33:17.996Z,97941.00
2023-01-19T09:35:44.465Z,97940.50
2023-01-19T09:38:10.931Z,97942.13
2023-01-19T09:40:37.449Z,97946.31
2023-01-19T09:43:03.894Z,97934.34
2023-01-19T09:45:30.545Z,97926.31
2023-01-19T09:47:58.212Z,97921.47
2023-01-19T09:50:24.911Z,97928.59
2023-01-19T09:52:52.517Z,97938.94
2023-01-19T09:55:18.937Z,97930.28
2023-01-19T09:57:45.413Z,97937.81
2023-01-19T10:00:11.972Z,97938.41
2023-01-19T10:02:38.487Z,97932.53
2023-01-19T10:05:04.921Z,97930.50
2023-01-19T10:07:31.319Z,97929.69
2023-01-19T10:09:57.739Z,97954.44
2023-01-19T10:12:24.157Z,97927.81
2023-01-19T10:14:50.630Z,97931.25
2023-01-19T10:17:17.087Z,97931.28
2023-01-19T10:19:46.825Z,97944.03
2023-01-19T10:22:13.427Z,97938.00
2023-01-19T10:24:39.998Z,97940.34
2023-01-19T10:27:06.929Z,97938.81
2023-01-19T10:29:33.487Z,97942.53
2023-01-19T10:31:59.997Z,97947.81
2023-01-19T10:34:26.578Z,97933.09
2023-01-19T10:36:53.003Z,97925.09
2023-01-19T10:39:19.453Z,97946.53
2023-01-19T10:41:46.107Z,97942.47
2023-01-19T10:44:12.614Z,97950.78
2023-01-19T10:46:39.317Z,97947.06
2023-01-19T10:49:05.850Z,97936.31
2023-01-19T10:51:32.380Z,97944.66
2023-01-19T10:53:58.871Z,97939.84
2023-01-19T10:56:25.357Z,97944.97
2023-01-19T10:58:51.815Z,97941.59
2023-01-19T11:01:18.440Z,97939.31
2023-01-19T11:03:45.925Z,97941.56
2023-01-19T11:06:12.388Z,97937.41
2023-01-19T11:08:38.787Z,97949.56
2023-01-19T11:11:05.606Z,97942.88
2023-01-19T11:13:32.150Z,97943.41
2023-01-19T11:15:59.773Z,97946.41
2023-01-19T11:18:26.473Z,97937.84
2023-01-19T11:20:54.850Z,97938.66
2023-01-19T11:23:21.424Z,97963.66
2023-01-19T11:25:47.947Z,97959.75
2023-01-19T11:28:14.335Z,97952.88
2023-01-19T11:30:40.785Z,97967.06
2023-01-19T11:33:07.215Z,97956.97
2023-01-19T11:35:33.662Z,97957.63
2023-01-19T11:38:00.062Z,97974.78
2023-01-19T11:40:26.552Z,97957.44
2023-01-19T11:42:53.084Z,97963.72
2023-01-19T11:45:19.490Z,97967.38
2023-01-19T11:47:45.909Z,97960.41
2023-01-19T11:50:12.345Z,97971.88
2023-01-19T11:52:38.822Z,97966.56
2023-01-19T11:55:05.243Z,97964.59
2023-01-19T11:57:31.597Z,97967.28
2023-01-19T11:59:58.224Z,97963.13
2023-01-19T12:02:24.720Z,97974.88
2023-01-19T12:04:51.199Z,97970.66
2023-01-19T12:07:17.671Z,97972.34
2023-01-19T12:09:44.082Z,97969.00
2023-01-19T12:12:10.472Z,97968.63
2023-01-19T12:14:37.169Z,97970.72
2023-01-19T12:17:03.556Z,97972.72
2023-01-19T12:19:30.012Z,97962.47
2023-01-19T12:21:56.445Z,97972.28
2023-01-19T12:24:23.009Z,97966.41
2023-01-19T12:26:49.644Z,97962.13
2023-01-19T12:29:16.244Z,97970.44
2023-01-19T12:31:42.999Z,97981.19
2023-01-19T12:34:09.704Z,97973.06
2023-01-19T12:36:36.151Z,97971.50
2023-01-19T12:39:02.598Z,97970.97
2023-01-19T12:41:29.011Z,97989.41
2023-01-19T12:43:55.853Z,97981.00
2023-01-19T12:46:22.394Z,97972.47
2023-01-19T12:48:48.839Z,97977.34
2023-01-19T12:51:15.322Z,97981.09
2023-01-19T12:53:41.765Z,97969.66
2023-01-19T12:56:08.189Z,97973.66
2023-01-19T12:58:34.698Z,97977.03
2023-01-19T13:01:01.211Z,97974.16
2023-01-19T13:03:27.738Z,97979.13
2023-01-19T13:05:54.354Z,97964.38
2023-01-19T13:08:21.110Z,97986.94
2023-01-19T13:10:47.508Z,97971.28
2023-01-19T13:13:14.237Z,97973.56
2023-01-19T13:15:40.858Z,97973.81
2023-01-19T13:18:07.470Z,97987.09
2023-01-19T13:20:34.170Z,97980.41
2023-01-19T13:23:00.710Z,97982.47
2023-01-19T13:25:27.137Z,97981.56
2023-01-19T13:27:53.624Z,98001.31
2023-01-19T13:30:20.184Z,98002.06
2023-01-19T13:32:46.641Z,98005.56
2023-01-19T13:35:13.106Z,98002.94
2023-01-19T13:37:39.486Z,98003.25
2023-01-19T13:40:05.931Z,98000.44
2023-01-19T13:42:32.333Z,98011.75
2023-01-19T13:44:58.762Z,98009.28
2023-01-19T13:47:25.180Z,98020.66
2023-01-19T13:49:51.801Z,98023.13
2023-01-19T13:52:18.263Z,98028.97
2023-01-19T13:54:44.728Z,98027.22
2023-01-19T13:57:11.141Z,98035.41
2023-01-19T13:59:37.658Z,98031.84
2023-01-19T14:02:04.165Z,98033.41
2023-01-19T14:04:30.854Z,98038.97
2023-01-19T14:06:57.277Z,98035.78
2023-01-19T14:09:23.740Z,98042.41
2023-01-19T14:11:50.160Z,98047.16
2023-01-19T14:14:16.501Z,98051.50
2023-01-19T14:16:42.963Z,98053.63
2023-01-19T14:19:09.465Z,98056.28
2023-01-19T14:21:36.317Z,98056.84
2023-01-19T14:24:02.760Z,98060.94
2023-01-19T14:26:29.224Z,98062.06
2023-01-19T14:28:55.859Z,98052.91
2023-01-19T14:31:22.352Z,98062.84
2023-01-19T14:33:49.124Z,98057.72
2023-01-19T14:36:17.655Z,98054.38
2023-01-19T14:38:44.407Z,98059.47
2023-01-19T14:41:11.127Z,98076.72
2023-01-19T14:43:37.571Z,98070.25
2023-01-19T14:46:04.216Z,98068.78
2023-01-19T14:48:30.733Z,98075.31
2023-01-19T14:51:03.192Z,98063.56
2023-01-19T14:53:30.227Z,98070.13
2023-01-19T14:55:56.623Z,98079.38
2023-01-19T14:58:23.142Z,98071.03
2023-01-19T15:00:49.763Z,98073.75
2023-01-19T15:03:16.613Z,98072.97
2023-01-19T15:05:43.016Z,98070.28
2023-01-19T15:08:09.465Z,98080.69
2023-01-19T15:10:35.915Z,98075.56
2023-01-19T15:13:02.379Z,98069.56
2023-01-19T15:15:29.184Z,98082.41
2023-01-19T15:17:56.357Z,98079.47
2023-01-19T15:20:23.090Z,98092.25
2023-01-19T15:22:49.512Z,98080.66
2023-01-19T15:25:15.981Z,98077.34
2023-01-19T15:27:42.504Z,98091.78
2023-01-19T15:30:09.088Z,98101.00
2023-01-19T15:32:35.543Z,98097.56
2023-01-19T15:35:02.638Z,98103.19
2023-01-19T15:37:29.306Z,98100.28
2023-01-19T15:39:55.743Z,98101.41
2023-01-19T15:42:22.204Z,98110.63
2023-01-19T15:44:48.660Z,98107.00
2023-01-19T15:47:15.201Z,98114.69
2023-01-19T15:49:41.602Z,98116.47
2023-01-19T15:52:08.248Z,98118.34
2023-01-19T15:54:34.653Z,98120.00
2023-01-19T15:57:01.135Z,98127.63
2023-01-19T15:59:27.791Z,98133.81
2023-01-19T16:01:54.450Z,98130.63
2023-01-19T16:04:21.014Z,98135.25
2023-01-19T16:06:47.743Z,98149.31
2023-01-19T16:09:14.120Z,98147.78
2023-01-19T16:11:40.534Z,98156.63
2023-01-19T16:14:07.059Z,98147.22
2023-01-19T16:16:33.556Z,98154.34
2023-01-19T16:18:59.996Z,98157.78
2023-01-19T16:21:26.927Z,98163.81
2023-01-19T16:23:53.505Z,98158.50
2023-01-19T16:26:20.136Z,98164.63
2023-01-19T16:28:46.942Z,98166.63
2023-01-19T16:31:13.682Z,98177.94
2023-01-19T16:33:40.142Z,98173.78
2023-01-19T16:36:06.865Z,98182.75
2023-01-19T16:38:33.243Z,98174.78
2023-01-19T16:40:59.884Z,98188.47
2023-01-19T16:43:28.409Z,98180.31
2023-01-19T16:45:55.060Z,98189.09
2023-01-19T16:48:21.565Z,98198.81
2023-01-19T16:50:48.251Z,98200.66
2023-01-19T16:53:17.233Z,98204.44
2023-01-19T16:55:46.191Z,98204.94
2023-01-19T16:58:12.827Z,98209.94
2023-01-19T17:00:40.519Z,98211.88
2023-01-19T17:03:08.618Z,98229.19
2023-01-19T17:05:35.246Z,98234.22
2023-01-19T17:08:01.965Z,98229.91
2023-01-19T17:10:28.694Z,98236.53
2023-01-19T17:12:56.009Z,98231.09
2023-01-19T17:15:22.996Z,98249.94
2023-01-19T17:17:49.690Z,98246.34
2023-01-19T17:20:16.579Z,98245.81
2023-01-19T17:22:44.459Z,98247.09
2023-01-19T17:25:15.173Z,98245.38
2023-01-19T17:27:41.862Z,98243.38
2023-01-19T17:30:10.215Z,98246.28
2023-01-19T17:32:37.574Z,98244.44
2023-01-19T17:35:04.392Z,98245.97
2023-01-19T17:37:31.280Z,98242.84
2023-01-19T17:39:59.261Z,98235.97
2023-01-19T17:42:26.556Z,98239.66
2023-01-19T17:44:53.878Z,98237.66
2023-01-19T17:47:21.197Z,98224.50
2023-01-19T17:49:52.830Z,98222.19
2023-01-19T17:52:20.671Z,98214.66
2023-01-19T17:54:48.408Z,98221.97
2023-01-19T17:57:15.530Z,98223.31
2023-01-19T17:59:42.375Z,98240.47
2023-01-19T18:02:12.627Z,98243.97
2023-01-19T18:04:39.865Z,98249.31
2023-01-19T18:07:07.522Z,98250.47
2023-01-19T18:09:34.651Z,98251.00
2023-01-19T18:12:01.399Z,98245.94
2023-01-19T18:14:28.478Z,98243.69
2023-01-19T18:16:55.554Z,98244.97
2023-01-19T18:19:22.450Z,98247.63
2023-01-19T18:21:49.531Z,98244.28
2023-01-19T18:24:19.343Z,98244.03
2023-01-19T18:26:46.503Z,98248.56
2023-01-19T18:29:16.734Z,98252.41
2023-01-19T18:31:43.195Z,98244.16
2023-01-19T18:34:11.219Z,98250.81
2023-01-19T18:36:38.355Z,98255.31
2023-01-19T18:39:05.279Z,98259.19
2023-01-19T18:41:33.536Z,98259.84
2023-01-19T18:44:00.609Z,98261.53
2023-01-19T18:46:27.962Z,98259.66
2023-01-19T18:48:55.814Z,98253.00
2023-01-19T18:51:22.569Z,98260.25
2023-01-19T18:53:50.582Z,98259.22
2023-01-19T18:56:17.860Z,98250.25
2023-01-19T18:58:48.614Z,98243.53
2023-01-19T19:01:17.579Z,98237.50
2023-01-19T19:03:44.701Z,98227.00
2023-01-19T19:06:14.950Z,98231.69
2023-01-19T19:08:41.838Z,98228.06
2023-01-19T19:11:09.741Z,98245.75
2023-01-19T19:13:37.164Z,98255.38
2023-01-19T19:16:04.744Z,98260.72
2023-01-19T19:18:31.690Z,98258.78
2023-01-19T19:20:59.791Z,98269.69
2023-01-19T19:23:26.970Z,98271.38
2023-01-19T19:25:54.180Z,98276.00
2023-01-19T19:28:22.107Z,98276.75
2023-01-19T19:30:49.290Z,98292.41
2023-01-19T19:33:16.454Z,98282.28
2023-01-19T19:35:43.110Z,98289.22
2023-01-19T19:38:10.987Z,98296.22
2023-01-19T19:40:37.930Z,98292.31
2023-01-19T19:43:05.197Z,98298.09
2023-01-19T19:45:32.416Z,98305.97
2023-01-19T19:47:58.895Z,98302.69
2023-01-19T19:50:26.692Z,98297.13
2023-01-19T19:52:54.348Z,98301.78
2023-01-19T19:55:20.996Z,98302.59
2023-01-19T19:57:48.225Z,98306.16
2023-01-19T20:00:15.774Z,98300.31
2023-01-19T20:02:43.443Z,98298.38
2023-01-19T20:05:11.138Z,98289.50
2023-01-19T20:07:38.315Z,98284.56
2023-01-19T20:10:06.119Z,98296.69
2023-01-19T20:12:33.137Z,98288.53
2023-01-19T20:15:00.813Z,98294.56
2023-01-19T20:17:27.407Z,98294.94
2023-01-19T20:19:54.711Z,98303.44
2023-01-19T20:22:23.212Z,98310.22
2023-01-19T20:24:51.179Z,98307.38
2023-01-19T20:27:18.209Z,98309.09
2023-01-19T20:29:51.625Z,98295.41
2023-01-19T20:32:19.292Z,98296.63
2023-01-19T20:34:46.683Z,98299.19
2023-01-19T20:37:13.429Z,98297.59
2023-01-19T20:39:41.304Z,98299.28
2023-01-19T20:42:08.552Z,98301.66
2023-01-19T20:44:35.078Z,98302.66
2023-01-19T20:47:02.351Z,98301.03
2023-01-19T20:49:29.597Z,98306.78
2023-01-19T20:51:56.660Z,98301.06
2023-01-19T20:54:25.681Z,98302.66
2023-01-19T20:56:53.306Z,98299.13
2023-01-19T20:59:20.161Z,98303.97
2023-01-19T21:01:47.467Z,98314.69
2023-01-19T21:04:14.228Z,98318.94
2023-01-19T21:06:41.498Z,98329.66
2023-01-19T21:09:08.492Z,98335.06
2023-01-19T21:11:35.447Z,98350.06
2023-01-19T21:14:02.240Z,98349.38
2023-01-19T21:16:29.360Z,98348.72
2023-01-19T21:18:55.800Z,98354.13
2023-01-19T21:21:30.406Z,98359.22
2023-01-19T21:23:57.796Z,98360.91
2023-01-19T21:26:24.425Z,98358.63
2023-01-19T21:28:51.324Z,98348.53
2023-01-19T21:31:17.760Z,98353.44
2023-01-19T21:33:44.863Z,98357.53
2023-01-19T21:36:11.274Z,98360.03
2023-01-19T21:38:37.751Z,98347.47
2023-01-19T21:41:05.417Z,98353.00
2023-01-19T21:43:31.844Z,98362.75
2023-01-19T21:45:58.492Z,98352.00
2023-01-19T21:48:24.936Z,98366.06
2023-01-19T21:50:51.364Z,98366.19
2023-01-19T21:53:17.846Z,98370.69
2023-01-19T21:55:44.350Z,98368.22
2023-01-19T21:58:10.822Z,98365.53
2023-01-19T22:00:37.326Z,98380.69
2023-01-19T22:03:04.865Z,98383.44
2023-01-19T22:05:31.487Z,98381.53
2023-01-19T22:07:58.070Z,98384.22
2023-01-19T22:10:24.539Z,98387.28
2023-01-19T22:12:51.177Z,98392.81
2023-01-19T22:15:17.700Z,98392.03
2023-01-19T22:17:44.135Z,98392.25
2023-01-19T22:20:10.875Z,98399.19
2023-01-19T22:22:37.234Z,98405.19
2023-01-19T22:25:05.889Z,98414.22
2023-01-19T22:27:32.536Z,98415.53
2023-01-19T22:29:58.911Z,98421.38
2023-01-19T22:32:25.445Z,98417.13
2023-01-19T22:34:52.026Z,98419.00
2023-01-19T22:37:18.421Z,98412.84
2023-01-19T22:39:44.858Z,98418.06
2023-01-19T22:42:12.303Z,98406.94
2023-01-19T22:44:38.688Z,98396.66
2023-01-19T22:47:05.454Z,98401.78
2023-01-19T22:49:31.904Z,98400.38
2023-01-19T22:51:58.392Z,98408.28
2023-01-19T22:54:24.739Z,98404.16
2023-01-19T22:56:51.492Z,98403.38
2023-01-19T22:59:18.077Z,98400.78
2023-01-19T23:01:44.633Z,98397.25
2023-01-19T23:04:11.176Z,98394.28
2023-01-19T23:06:37.645Z,98384.56
2023-01-19T23:09:04.085Z,98391.75
2023-01-19T23:11:30.892Z,98388.28
2023-01-19T23:13:57.354Z,98378.66
2023-01-19T23:16:23.882Z,98380.28
2023-01-19T23:18:50.495Z,98379.47
2023-01-19T23:21:17.002Z,98382.53
2023-01-19T23:23:46.540Z,98375.53
2023-01-19T23:26:12.973Z,98380.72
2023-01-19T23:28:39.723Z,98376.88
2023-01-19T23:31:06.243Z,98363.81
2023-01-19T23:33:32.801Z,98374.06
2023-01-19T23:35:59.235Z,98371.97
2023-01-19T23:38:25.697Z,98364.66
2023-01-19T23:40:52.106Z,98365.94
2023-01-19T23:43:18.489Z,98369.97
2023-01-19T23:45:44.896Z,98372.91
2023-01-19T23:48:11.404Z,98370.66
2023-01-19T23:50:37.844Z,98373.81
2023-01-19T23:53:04.264Z,98371.72
2023-01-19T23:55:30.665Z,98378.16
2023-01-19T23:57:57.285Z,98371.44
